Orbital elements of COSMOS 1275 DEB
| Launched | 3 June 1981 |
| Flight ended | – |
| Launch site | Plesetsk Missile and Space Complex, Russia |
| Owner | Commonwealth of Independent States (former USSR) |
| NORAD ID | 42195 |
| Date fetched |
Epoch osculation |
Inc. [°] |
Ecc. | RA asc node [hr] |
Arg Peri. [°] |
Mean anom [°] |
Mean motion [rev/day] |
Abs. mag |
| Date fetched |
Epoch osculation |
Inc. [°] |
Ecc. | RA asc node [hr] |
Arg Peri. [°] |
Mean anom [°] |
Mean motion [rev/day] |
Abs. mag |
| 2026 May 05 17:57 | 2026 May 02 04:39:51 | 83.0309 | 0.01010 | 19.3225 | 269.6956 | 89.2627 | 13.81328 | – |
| 2026 May 04 17:57 | 2026 Apr 29 05:23:16 | 83.0308 | 0.01009 | 19.4689 | 278.2917 | 89.2627 | 13.81328 | – |
| 2026 May 03 17:57 | 2026 Apr 29 05:23:16 | 83.0308 | 0.01009 | 19.4689 | 278.2917 | 89.2627 | 13.81328 | – |
| 2026 May 02 17:57 | 2026 Apr 29 05:23:16 | 83.0308 | 0.01009 | 19.4689 | 278.2917 | 89.2627 | 13.81328 | – |
| 2026 May 01 17:56 | 2026 Apr 29 05:23:16 | 83.0308 | 0.01009 | 19.4689 | 278.2917 | 89.2627 | 13.81328 | – |
| 2026 Apr 30 17:56 | 2026 Apr 29 05:23:16 | 83.0308 | 0.01009 | 19.4689 | 278.2917 | 89.2627 | 13.81328 | – |
| 2026 Apr 29 17:57 | 2026 Apr 21 06:09:23 | 83.0305 | 0.01011 | 19.8619 | 301.3177 | 89.2627 | 13.81328 | – |
| 2026 Apr 28 17:56 | 2026 Apr 21 06:09:23 | 83.0305 | 0.01011 | 19.8619 | 301.3177 | 89.2627 | 13.81328 | – |
| 2026 Apr 27 17:58 | 2026 Apr 21 06:09:23 | 83.0305 | 0.01011 | 19.8619 | 301.3177 | 89.2627 | 13.81328 | – |
| 2026 Apr 26 17:58 | 2026 Apr 21 06:09:23 | 83.0305 | 0.01011 | 19.8619 | 301.3177 | 89.2627 | 13.81328 | – |
| 2026 Apr 25 17:58 | 2026 Apr 21 06:09:23 | 83.0305 | 0.01011 | 19.8619 | 301.3177 | 89.2627 | 13.81328 | – |
| 2026 Apr 24 17:59 | 2026 Apr 21 06:09:23 | 83.0305 | 0.01011 | 19.8619 | 301.3177 | 89.2627 | 13.81328 | – |
| 2026 Apr 23 17:57 | 2026 Apr 17 18:42:33 | 83.0305 | 0.01014 | 20.0333 | 311.3103 | 89.2627 | 13.81328 | – |
| 2026 Apr 22 17:57 | 2026 Apr 17 18:42:33 | 83.0305 | 0.01014 | 20.0333 | 311.3103 | 89.2627 | 13.81328 | – |
| 2026 Apr 21 17:57 | 2026 Apr 17 18:42:33 | 83.0305 | 0.01014 | 20.0333 | 311.3103 | 89.2627 | 13.81328 | – |
| 2026 Apr 20 17:57 | 2026 Apr 17 18:42:33 | 83.0305 | 0.01014 | 20.0333 | 311.3103 | 89.2627 | 13.81328 | – |
| 2026 Apr 19 17:58 | 2026 Apr 17 18:42:33 | 83.0305 | 0.01014 | 20.0333 | 311.3103 | 89.2627 | 13.81328 | – |
| 2026 Apr 18 17:56 | 2026 Apr 11 06:14:42 | 83.0320 | 0.01020 | 20.3547 | 329.8929 | 89.2627 | 13.81328 | – |
| 2026 Apr 16 17:57 | 2026 Apr 11 06:14:42 | 83.0320 | 0.01020 | 20.3547 | 329.8929 | 89.2627 | 13.81328 | – |
| 2026 Apr 14 17:57 | 2026 Apr 11 06:14:42 | 83.0320 | 0.01020 | 20.3547 | 329.8929 | 89.2627 | 13.81328 | – |
| 2026 Apr 13 17:57 | 2026 Apr 11 06:14:42 | 83.0320 | 0.01020 | 20.3547 | 329.8929 | 89.2627 | 13.81328 | – |
| 2026 Apr 12 17:57 | 2026 Apr 05 07:41:15 | 83.0324 | 0.01026 | 20.6475 | 346.6741 | 89.2627 | 13.81328 | – |
| 2026 Apr 11 17:57 | 2026 Apr 05 07:41:15 | 83.0324 | 0.01026 | 20.6475 | 346.6741 | 89.2627 | 13.81328 | – |
| 2026 Apr 10 17:58 | 2026 Apr 05 07:41:15 | 83.0324 | 0.01026 | 20.6475 | 346.6741 | 89.2627 | 13.81328 | – |
| 2026 Apr 09 18:01 | 2026 Apr 05 07:41:15 | 83.0324 | 0.01026 | 20.6475 | 346.6741 | 89.2627 | 13.81328 | – |
| 2026 Apr 08 17:57 | 2026 Apr 05 07:41:15 | 83.0324 | 0.01026 | 20.6475 | 346.6741 | 89.2627 | 13.81328 | – |